< Cyclone 200309 2004 Season Cyclone 200402 >
Cyclone 200401 (JANA)
General InformationTrack Information on Google MapsDetailed Wind InformationList of All Images || ResourceGoogle EarthGE AnimationAtom FeedGeoJSON
Detalied Best Track (Time Zone = UTC)
Year Month Day Hour Lat. Long. Pressure (hPa) Wind (kt) Class Image Chart
2003 12 6 00 -6.9 93.2 1005 20 2 Image --
2003 12 6 06 -7.1 93.8 1004 20 2 Image --
2003 12 6 12 -7.3 94.4 1002 25 2 Image --
2003 12 6 18 -7.4 95.2 1000 30 2 Image --
2003 12 7 00 -7.5 95.9 995 35 3 Image --
2003 12 7 06 -7.7 96.2 992 40 3 Image --
2003 12 7 12 -7.7 96.6 990 45 3 Image --
2003 12 7 18 -7.7 97.1 985 50 4 Image --
2003 12 8 00 -7.8 97.6 980 55 4 Image --
2003 12 8 06 -8.1 98.0 970 65 5 Image --
2003 12 8 12 -8.4 98.7 965 70 5 Image --
2003 12 8 18 -9.0 99.2 965 75 5 Image --
2003 12 9 00 -10.0 99.3 960 75 5 Image --
2003 12 9 06 -11.0 99.4 955 80 5 Image --
2003 12 9 12 -11.9 99.4 950 85 5 Image --
2003 12 9 18 -12.7 99.3 950 80 5 Image --
2003 12 10 00 -13.5 99.2 955 80 5 Image --
2003 12 10 06 -14.0 98.9 960 75 5 Image --
2003 12 10 12 -14.3 98.6 965 70 5 Image --
2003 12 10 18 -14.5 98.1 975 60 4 Image --
2003 12 11 00 -14.6 97.4 985 50 4 Image --
2003 12 11 06 -14.7 96.6 990 35 3 Image --
2003 12 11 12 -14.8 95.6 995 30 2 Image --
2003 12 11 18 -14.8 94.6 1000 25 2 Image --
2003 12 12 00 -14.7 93.8 1002 25 2 Image --
2003 12 12 06 -14.6 93.0 1002 25 2 Image --
< Cyclone 200309 2004 Season Cyclone 200402 >

Help